Time;durP1;ratioP1;P1;durP2;ratioP2;P2;SDS_P1;SDS_P2;PMS_P1;PMS_P2;Temp;Humidity;BMP_temperature;BMP_pressure;BME280_temperature;BME280_humidity;BME280_pressure;Samples;Min_cycle;Max_cycle;Signal;HPM_P1;HPM_P2
2021/12/13 00:00:21;;;;;;;433.50;112.70;;;;;;;0.28;98.82;100021.16;105295;1324;138036;-60
2021/12/13 00:03:01;;;;;;;69.70;32.50;;;;;;;0.28;98.75;100018.24;105432;1328;22410;-59
2021/12/13 00:05:40;;;;;;;185.40;55.50;;;;;;;0.28;98.81;100014.02;105296;1325;137853;-59
2021/12/13 00:08:10;;;;;;;117.70;42.00;;;;;;;0.28;98.57;100013.25;105323;1325;22521;-59
2021/12/13 00:10:52;;;;;;;133.30;47.30;;;;;;;0.27;98.65;100016.58;105336;1324;22558;-59
2021/12/13 00:13:24;;;;;;;155.20;53.80;;;;;;;0.26;98.47;100017.99;105313;1324;138186;-59
2021/12/13 00:15:56;;;;;;;193.50;51.90;;;;;;;0.26;98.72;100021.61;104081;1324;22577;-58
2021/12/13 00:18:45;;;;;;;75.90;32.30;;;;;;;0.26;98.49;100016.02;105424;1325;137966;-60
2021/12/13 00:21:20;;;;;;;84.50;37.70;;;;;;;0.25;98.07;100016.30;105566;1325;22502;-60
2021/12/13 00:23:52;;;;;;;106.70;40.90;;;;;;;0.25;98.42;100007.95;105418;1323;138313;-60
2021/12/13 00:26:28;;;;;;;69.00;34.00;;;;;;;0.27;98.44;100004.15;105605;1325;23431;-60
2021/12/13 00:28:56;;;;;;;120.90;43.20;;;;;;;0.29;98.26;100002.48;105360;1324;22496;-60
2021/12/13 00:32:02;;;;;;;58.30;30.10;;;;;;;0.28;98.17;100002.89;105475;1323;137778;-60
2021/12/13 00:34:33;;;;;;;85.30;40.50;;;;;;;0.28;97.93;100001.36;105565;1325;23124;-60
2021/12/13 00:37:03;;;;;;;44.80;23.60;;;;;;;0.26;98.46;99994.17;105452;1323;138027;-60
2021/12/13 00:39:35;;;;;;;90.20;37.90;;;;;;;0.26;98.08;99997.02;105554;1325;22421;-60
2021/12/13 00:42:03;;;;;;;51.50;26.70;;;;;;;0.25;97.98;99981.25;105247;1325;137905;-60
2021/12/13 00:44:41;;;;;;;49.50;25.70;;;;;;;0.25;97.83;99987.02;105673;1322;22549;-59
2021/12/13 00:47:13;;;;;;;78.90;36.20;;;;;;;0.25;98.12;99993.81;105603;1322;138216;-59
2021/12/13 00:49:42;;;;;;;49.00;29.20;;;;;;;0.27;98.01;99993.40;105462;1326;22477;-59
2021/12/13 00:52:09;;;;;;;70.90;34.80;;;;;;;0.27;97.59;99988.05;105658;1322;22504;-60
2021/12/13 00:54:39;;;;;;;81.10;37.10;;;;;;;0.29;97.78;99986.86;104792;1327;138545;-59
2021/12/13 00:57:17;;;;;;;71.30;35.30;;;;;;;0.30;97.83;99989.84;104431;1332;22550;-60
2021/12/13 00:59:53;;;;;;;78.00;38.00;;;;;;;0.29;97.74;99993.13;105569;1321;137834;-60
2021/12/13 01:02:27;;;;;;;145.10;52.30;;;;;;;0.27;97.35;99995.67;105367;1322;22334;-59
2021/12/13 01:05:02;;;;;;;65.90;32.00;;;;;;;0.28;97.56;99990.41;105431;1325;23595;-59
2021/12/13 01:07:32;;;;;;;73.50;33.90;;;;;;;0.27;97.61;99990.68;105422;1323;137641;-59
2021/12/13 01:10:31;;;;;;;75.20;36.20;;;;;;;0.27;97.48;99987.71;105635;1322;22406;-58
2021/12/13 01:12:59;;;;;;;52.50;28.10;;;;;;;0.25;97.43;99983.67;105600;1322;137815;-59
2021/12/13 01:15:37;;;;;;;278.10;84.50;;;;;;;0.24;97.53;99980.19;105531;1322;23397;-58
2021/12/13 01:18:29;;;;;;;97.80;36.60;;;;;;;0.23;97.49;99976.55;105559;1322;137842;-58
2021/12/13 01:21:17;;;;;;;53.60;29.40;;;;;;;0.23;97.33;99968.71;105561;1324;22548;-58
2021/12/13 01:23:49;;;;;;;112.10;43.00;;;;;;;0.22;97.26;99955.61;105547;1322;138083;-58
2021/12/13 01:26:38;;;;;;;74.80;34.20;;;;;;;0.21;97.11;99948.39;105668;1322;22486;-59
2021/12/13 01:29:09;;;;;;;60.00;31.30;;;;;;;0.21;97.50;99939.25;105666;1322;22482;-58
2021/12/13 01:31:45;;;;;;;107.90;40.90;;;;;;;0.20;97.42;99942.03;105577;1322;138990;-58
2021/12/13 01:34:13;;;;;;;77.90;33.50;;;;;;;0.21;97.32;99945.71;105651;1322;22482;-58
2021/12/13 01:36:55;;;;;;;67.10;33.40;;;;;;;0.22;97.57;99945.40;105530;1322;137952;-58
2021/12/13 01:39:25;;;;;;;61.40;31.40;;;;;;;0.21;97.31;99945.51;105648;1322;22442;-58
2021/12/13 01:42:01;;;;;;;78.10;40.20;;;;;;;0.21;97.32;99950.20;105295;1322;138732;-58
2021/12/13 01:44:34;;;;;;;156.20;59.50;;;;;;;0.20;97.58;99960.63;105414;1322;23046;-59
2021/12/13 01:47:14;;;;;;;73.30;34.60;;;;;;;0.21;97.35;99961.59;102429;1322;23027;-56
2021/12/13 01:49:52;;;;;;;72.70;35.70;;;;;;;0.22;97.24;99959.16;105552;1322;138031;-59
2021/12/13 01:52:27;;;;;;;115.10;52.30;;;;;;;0.22;97.38;99952.04;105671;1322;22474;-58
2021/12/13 01:54:59;;;;;;;77.20;36.80;;;;;;;0.22;97.46;99949.25;105542;1322;138700;-58
2021/12/13 01:57:40;;;;;;;183.90;64.30;;;;;;;0.23;97.54;99946.67;105645;1322;22633;-58
2021/12/13 02:01:08;;;;;;;67.60;33.50;;;;;;;0.22;97.62;99947.52;105560;1322;138766;-58
2021/12/13 02:03:22;;;;;;;77.20;35.50;;;;;;;0.21;97.60;99953.02;105670;1322;23252;-58
2021/12/13 02:05:50;;;;;;;73.10;35.20;;;;;;;0.20;97.51;99941.73;105220;1325;137914;-58
2021/12/13 02:08:21;;;;;;;97.80;43.40;;;;;;;0.19;97.40;99957.38;105614;1322;22500;-59
2021/12/13 02:10:51;;;;;;;188.40;69.70;;;;;;;0.20;97.53;99952.95;105688;1322;23244;-59
2021/12/13 02:13:37;;;;;;;100.70;41.70;;;;;;;0.22;97.36;99951.80;105577;1322;138297;-59
2021/12/13 02:18:55;;;;;;;77.90;38.40;;;;;;;0.25;97.48;99949.30;104818;1322;139092;-59
2021/12/13 02:21:29;;;;;;;73.90;35.40;;;;;;;0.26;97.64;99953.65;105655;1322;22507;-59
2021/12/13 02:24:09;;;;;;;93.60;42.30;;;;;;;0.28;97.63;99958.12;105536;1322;137818;-58
2021/12/13 02:26:41;;;;;;;74.20;34.90;;;;;;;0.28;97.38;99963.11;105669;1322;22515;-59
2021/12/13 02:29:15;;;;;;;73.80;35.80;;;;;;;0.27;97.39;99958.20;105477;1325;22498;-58
2021/12/13 02:31:43;;;;;;;67.60;36.00;;;;;;;0.27;97.60;99955.89;104740;1322;138181;-59
2021/12/13 02:34:13;;;;;;;74.50;35.80;;;;;;;0.27;97.43;99958.06;105665;1322;23344;-59
2021/12/13 02:36:43;;;;;;;119.10;53.10;;;;;;;0.27;97.40;99960.11;105501;1322;138008;-58
2021/12/13 02:39:14;;;;;;;72.60;36.00;;;;;;;0.28;97.65;99958.05;105391;1329;22493;-58
2021/12/13 02:41:43;;;;;;;86.30;40.60;;;;;;;0.28;97.60;99955.52;105416;1325;138515;-58
2021/12/13 02:44:15;;;;;;;88.90;41.30;;;;;;;0.31;97.57;99959.67;105510;1325;23260;-58
2021/12/13 02:46:44;;;;;;;80.40;39.10;;;;;;;0.32;97.54;99962.59;103068;1322;26563;-57
2021/12/13 02:49:14;;;;;;;79.10;37.20;;;;;;;0.31;97.49;99962.34;101388;1322;137910;-57
2021/12/13 02:51:47;;;;;;;84.30;41.50;;;;;;;0.32;97.66;99967.55;101570;1322;22689;-57
2021/12/13 02:54:26;;;;;;;81.60;38.80;;;;;;;0.32;97.72;99964.66;105541;1322;137924;-59
2021/12/13 02:57:11;;;;;;;78.40;39.80;;;;;;;0.33;97.49;99955.35;105681;1322;23956;-59
2021/12/13 02:59:42;;;;;;;89.90;45.90;;;;;;;0.32;97.67;99950.66;105259;1325;138809;-58
2021/12/13 03:02:30;;;;;;;92.40;40.50;;;;;;;0.33;97.17;99949.77;105542;1325;22446;-58
2021/12/13 03:04:59;;;;;;;92.60;44.90;;;;;;;0.33;97.41;99945.50;105689;1322;22408;-59
2021/12/13 03:07:33;;;;;;;82.60;39.60;;;;;;;0.34;97.55;99949.85;105575;1322;137952;-58
2021/12/13 03:10:07;;;;;;;84.90;40.80;;;;;;;0.36;97.56;99944.67;105434;1325;22555;-58
2021/12/13 03:12:39;;;;;;;92.60;43.60;;;;;;;0.37;97.64;99939.14;105521;1322;137902;-59
2021/12/13 03:15:11;;;;;;;72.50;39.30;;;;;;;0.38;97.59;99931.05;105653;1322;23355;-54
2021/12/13 03:17:43;;;;;;;81.90;39.70;;;;;;;0.38;97.63;99933.24;105606;1322;138401;-59
2021/12/13 03:20:36;;;;;;;88.40;39.20;;;;;;;0.38;97.51;99926.90;105416;1325;22567;-58
2021/12/13 03:23:07;;;;;;;101.70;46.70;;;;;;;0.37;97.70;99929.48;105506;1325;23279;-58
2021/12/13 03:25:59;;;;;;;85.40;42.20;;;;;;;0.37;97.39;99926.30;105965;1318;139095;-58
2021/12/13 03:29:04;;;;;;;88.90;39.60;;;;;;;0.36;97.55;99921.55;106042;1319;23172;-59
2021/12/13 03:31:36;;;;;;;88.20;41.20;;;;;;;0.36;97.44;99913.89;105979;1318;139452;-59
2021/12/13 03:34:09;;;;;;;85.70;43.20;;;;;;;0.34;97.09;99910.80;106100;1318;22510;-59
2021/12/13 03:36:37;;;;;;;87.30;41.70;;;;;;;0.35;97.64;99908.59;105826;1322;137849;-59
2021/12/13 03:39:06;;;;;;;82.40;40.00;;;;;;;0.34;97.73;99911.02;106077;1319;22548;-59
2021/12/13 03:41:37;;;;;;;91.40;42.80;;;;;;;0.34;97.32;99912.86;105953;1319;139465;-58
2021/12/13 03:44:08;;;;;;;92.30;41.60;;;;;;;0.34;97.58;99915.37;106066;1319;22455;-59
2021/12/13 03:46:37;;;;;;;85.10;41.40;;;;;;;0.33;97.64;99917.18;106121;1319;24176;-58
2021/12/13 03:49:06;;;;;;;92.50;43.20;;;;;;;0.34;97.27;99915.08;105978;1319;138219;-58
2021/12/13 03:51:36;;;;;;;86.70;39.90;;;;;;;0.34;97.51;99920.73;106069;1319;22422;-58
2021/12/13 03:54:05;;;;;;;93.00;42.00;;;;;;;0.34;97.51;99915.91;105714;1319;138099;-59
2021/12/13 03:56:39;;;;;;;93.30;43.30;;;;;;;0.34;97.72;99902.64;103800;1319;23996;-58
2021/12/13 03:59:18;;;;;;;71.80;35.50;;;;;;;0.35;97.58;99891.48;106091;1319;23197;-59
2021/12/13 04:01:51;;;;;;;92.30;46.00;;;;;;;0.35;97.58;99882.57;105988;1318;137787;-58
2021/12/13 04:04:32;;;;;;;89.40;40.80;;;;;;;0.37;97.65;99884.90;105931;1325;23079;-59
2021/12/13 04:07:27;;;;;;;93.30;41.70;;;;;;;0.36;97.61;99886.52;105969;1319;138266;-59
2021/12/13 04:09:57;;;;;;;97.30;43.60;;;;;;;0.35;97.65;99886.45;105314;1320;22502;-60
2021/12/13 04:12:32;;;;;;;88.50;39.90;;;;;;;0.34;97.59;99887.47;105934;1318;139371;-59
2021/12/13 04:15:12;;;;;;;84.80;38.30;;;;;;;0.33;97.68;99883.12;105148;1324;23094;-59
2021/12/13 04:18:14;;;;;;;84.00;39.00;;;;;;;0.33;97.55;99881.41;105935;1319;138379;-59
2021/12/13 04:20:34;;;;;;;101.60;46.50;;;;;;;0.31;97.63;99888.16;106169;1318;22477;-59
2021/12/13 04:23:09;;;;;;;100.10;46.70;;;;;;;0.32;97.74;99897.37;106084;1319;22464;-58
2021/12/13 04:25:42;;;;;;;94.40;42.50;;;;;;;0.33;97.62;99896.23;104999;1322;138824;-58
2021/12/13 04:28:46;;;;;;;87.40;41.40;;;;;;;0.33;97.53;99899.70;102024;1319;25348;-58
2021/12/13 04:31:20;;;;;;;106.60;47.60;;;;;;;0.35;97.62;99902.57;101970;1319;138606;-57
2021/12/13 04:33:53;;;;;;;98.50;46.90;;;;;;;0.35;97.64;99904.02;106099;1319;22473;-59
2021/12/13 04:36:32;;;;;;;116.90;46.90;;;;;;;0.36;97.81;99912.77;105991;1319;138717;-60
2021/12/13 04:39:27;;;;;;;95.80;44.60;;;;;;;0.39;97.87;99911.58;106105;1318;22561;-59
2021/12/13 04:41:59;;;;;;;100.30;47.60;;;;;;;0.40;97.78;99907.56;105956;1318;138858;-60
2021/12/13 04:44:56;;;;;;;106.80;47.80;;;;;;;0.39;97.64;99907.10;106100;1319;22516;-58
2021/12/13 04:47:28;;;;;;;104.00;46.80;;;;;;;0.41;97.69;99916.73;106128;1319;22464;-58
2021/12/13 04:50:13;;;;;;;104.70;45.60;;;;;;;0.41;97.60;99914.08;105955;1319;138130;-58
2021/12/13 04:52:41;;;;;;;96.30;42.70;;;;;;;0.41;97.80;99915.28;106064;1319;22594;-60
2021/12/13 04:55:21;;;;;;;109.50;47.80;;;;;;;0.39;97.70;99920.52;105975;1318;139337;-58
2021/12/13 04:57:49;;;;;;;102.30;45.30;;;;;;;0.38;97.71;99917.98;105983;1319;22469;-60
2021/12/13 05:00:24;;;;;;;97.60;44.10;;;;;;;0.36;97.60;99915.52;105819;1319;138799;-59
2021/12/13 05:02:56;;;;;;;105.80;46.40;;;;;;;0.33;97.64;99914.38;106085;1319;23203;-59
2021/12/13 05:05:24;;;;;;;103.50;43.00;;;;;;;0.31;97.52;99921.39;106059;1319;23058;-59
2021/12/13 05:07:51;;;;;;;96.40;43.30;;;;;;;0.29;97.70;99919.41;105989;1319;138046;-59
2021/12/13 05:10:23;;;;;;;100.00;43.60;;;;;;;0.27;97.70;99925.75;106089;1319;23549;-59
2021/12/13 05:12:59;;;;;;;89.90;40.90;;;;;;;0.24;97.40;99924.02;105925;1323;139256;-59
2021/12/13 05:15:27;;;;;;;94.80;42.10;;;;;;;0.23;97.74;99923.33;106090;1319;22372;-59
2021/12/13 05:17:55;;;;;;;97.70;41.30;;;;;;;0.21;97.48;99926.02;104819;1322;140260;-59
2021/12/13 05:20:26;;;;;;;106.80;45.00;;;;;;;0.22;97.77;99924.67;106077;1324;24488;-59
2021/12/13 05:22:56;;;;;;;92.90;40.60;;;;;;;0.22;97.72;99916.80;106088;1323;22416;-59
2021/12/13 05:25:52;;;;;;;78.90;36.60;;;;;;;0.23;97.75;99921.68;106011;1319;139304;-59
2021/12/13 05:28:25;;;;;;;93.10;40.50;;;;;;;0.25;97.69;99921.27;106088;1325;22525;-59
2021/12/13 05:30:58;;;;;;;122.60;62.00;;;;;;;0.26;97.65;99925.31;106032;1323;138865;-59
2021/12/13 05:33:29;;;;;;;95.80;40.60;;;;;;;0.26;97.79;99928.16;106125;1325;22479;-59
2021/12/13 05:35:59;;;;;;;107.80;44.80;;;;;;;0.25;97.88;99923.77;106177;1316;138520;-59
2021/12/13 05:38:32;;;;;;;109.20;45.70;;;;;;;0.24;97.79;99920.88;106203;1316;22540;-59
2021/12/13 05:41:03;;;;;;;86.90;39.70;;;;;;;0.23;97.74;99920.98;106245;1315;23224;-59
2021/12/13 05:43:42;;;;;;;101.40;43.60;;;;;;;0.22;97.65;99924.27;106168;1315;138204;-59
2021/12/13 05:46:18;;;;;;;82.90;38.80;;;;;;;0.23;98.03;99925.67;106287;1316;22554;-59
2021/12/13 05:48:50;;;;;;;88.20;40.70;;;;;;;0.22;97.61;99928.76;106119;1313;137984;-59
2021/12/13 05:51:21;;;;;;;86.60;43.00;;;;;;;0.22;98.03;99933.77;106266;1315;22475;-57
2021/12/13 05:53:55;;;;;;;96.00;42.30;;;;;;;0.22;97.91;99940.95;106207;1313;139653;-58
2021/12/13 05:56:24;;;;;;;136.70;70.00;;;;;;;0.23;97.98;99946.04;104252;1316;24862;-59
2021/12/13 05:58:55;;;;;;;125.00;59.90;;;;;;;0.24;97.94;99947.27;102013;1319;22778;-57
2021/12/13 06:01:28;;;;;;;167.90;67.10;;;;;;;0.26;97.86;99949.96;101957;1316;138954;-57
2021/12/13 06:04:08;;;;;;;132.30;53.10;;;;;;;0.26;98.13;99954.92;106241;1316;22675;-58
2021/12/13 06:06:45;;;;;;;96.20;40.90;;;;;;;0.26;97.85;99958.48;106133;1316;138339;-58
2021/12/13 06:09:33;;;;;;;;;;;;;;;0.25;97.96;99957.67;106299;1316;22449;-58
2021/12/13 06:12:04;;;;;;;103.70;44.40;;;;;;;0.25;97.94;99953.45;106149;1316;125377;-58
2021/12/13 06:14:35;;;;;;;73.80;37.00;;;;;;;0.25;97.89;99956.88;106276;1316;23290;-59
2021/12/13 06:17:17;;;;;;;84.50;40.50;;;;;;;0.25;98.41;99960.30;106268;1315;23229;-59
2021/12/13 06:19:53;;;;;;;73.40;34.50;;;;;;;0.24;97.97;99956.60;106020;1316;139529;-59
2021/12/13 06:22:23;;;;;;;81.40;34.20;;;;;;;0.23;98.05;99955.08;106142;1317;22417;-59
2021/12/13 06:24:57;;;;;;;65.80;31.10;;;;;;;0.24;98.14;99952.90;106208;1315;137987;-59
2021/12/13 06:27:29;;;;;;;72.90;31.60;;;;;;;0.23;97.89;99951.83;102436;1316;23122;-55
2021/12/13 06:30:02;;;;;;;71.10;32.10;;;;;;;0.24;97.77;99950.48;102068;1316;139111;-54
2021/12/13 06:32:32;;;;;;;58.20;28.50;;;;;;;0.25;98.28;99948.56;106248;1316;22474;-56
2021/12/13 06:35:20;;;;;;;56.20;28.20;;;;;;;0.27;97.99;99952.00;106264;1316;22611;-56
2021/12/13 06:37:48;;;;;;;;;;;;;;;0.28;97.91;99959.54;106032;1313;138488;-56
2021/12/13 06:40:25;;;;;;;59.00;29.20;;;;;;;0.29;97.94;99961.52;106264;1316;22522;-55
2021/12/13 06:42:58;;;;;;;57.10;31.30;;;;;;;0.29;97.87;99955.61;106176;1316;138458;-55
2021/12/13 06:45:29;;;;;;;53.70;28.00;;;;;;;0.30;97.84;99959.82;106174;1316;22264;-55
2021/12/13 06:47:57;;;;;;;53.00;28.30;;;;;;;0.31;97.82;99959.67;106197;1315;138314;-55
2021/12/13 06:50:28;;;;;;;44.30;23.50;;;;;;;0.32;97.92;99957.59;105961;1316;22404;-55
2021/12/13 06:53:15;;;;;;;45.40;23.40;;;;;;;0.32;98.04;99954.21;106275;1315;22653;-55
2021/12/13 06:55:45;;;;;;;43.00;24.40;;;;;;;0.31;97.93;99946.31;105272;1316;138848;-57
2021/12/13 06:58:24;;;;;;;42.40;23.30;;;;;;;0.30;97.51;99946.80;102088;1316;23616;-55
2021/12/13 07:00:55;;;;;;;43.80;23.60;;;;;;;0.29;97.39;99944.52;105806;1316;138303;-57
2021/12/13 07:03:26;;;;;;;45.80;26.20;;;;;;;0.29;97.43;99949.23;106174;1315;22557;-57
2021/12/13 07:05:56;;;;;;;50.50;26.20;;;;;;;0.28;97.44;99948.69;105980;1316;139429;-57
2021/12/13 07:08:35;;;;;;;48.80;23.80;;;;;;;0.27;97.52;99943.56;106311;1316;22529;-57
2021/12/13 07:11:06;;;;;;;41.60;22.30;;;;;;;0.28;97.24;99937.55;106314;1316;22433;-57
2021/12/13 07:14:02;;;;;;;41.00;23.00;;;;;;;0.28;97.08;99930.92;106166;1316;137946;-58
2021/12/13 07:16:33;;;;;;;52.50;24.90;;;;;;;0.28;97.21;99922.84;106113;1315;23236;-58
2021/12/13 07:19:18;;;;;;;43.30;23.90;;;;;;;0.28;96.97;99919.95;106133;1315;139051;-58
2021/12/13 07:21:56;;;;;;;43.90;24.40;;;;;;;0.29;97.13;99920.91;106243;1316;22475;-59
2021/12/13 07:24:42;;;;;;;;;;;;;;;0.31;97.03;99920.23;106055;1316;139628;-58
2021/12/13 07:27:28;;;;;;;52.40;27.10;;;;;;;0.32;97.22;99930.56;106203;1316;22481;-58
2021/12/13 07:29:57;;;;;;;44.70;24.70;;;;;;;0.33;97.17;99918.16;106027;1316;138231;-58
2021/12/13 07:32:30;;;;;;;52.90;28.30;;;;;;;0.34;97.08;99909.98;106288;1316;22466;-58
2021/12/13 07:35:20;;;;;;;47.40;26.20;;;;;;;0.34;96.77;99904.15;106317;1316;23195;-58
2021/12/13 07:37:55;;;;;;;48.20;25.40;;;;;;;0.34;96.96;99899.77;106177;1315;139919;-58
2021/12/13 07:40:42;;;;;;;45.90;25.50;;;;;;;0.34;96.77;99898.85;106010;1315;22611;-58
2021/12/13 07:43:37;;;;;;;53.70;25.70;;;;;;;0.34;96.77;99898.92;106191;1316;138123;-58
2021/12/13 07:46:08;;;;;;;45.90;24.50;;;;;;;0.34;96.73;99909.11;106225;1316;22470;-59
2021/12/13 07:48:39;;;;;;;40.80;24.50;;;;;;;0.35;96.80;99917.14;106129;1316;139806;-59
2021/12/13 07:51:13;;;;;;;47.00;26.50;;;;;;;0.38;96.68;99925.66;106297;1315;23131;-59
2021/12/13 07:53:49;;;;;;;50.20;29.20;;;;;;;0.41;96.81;99940.45;106131;1315;139119;-60
2021/12/13 07:56:44;;;;;;;64.30;32.00;;;;;;;0.45;96.71;99944.80;106121;1315;190893;-60
2021/12/13 07:59:25;;;;;;;47.40;27.10;;;;;;;0.48;96.65;99944.98;106202;1315;23025;-60
2021/12/13 08:01:56;;;;;;;48.40;26.70;;;;;;;0.50;96.51;99953.14;106170;1316;138169;-60
2021/12/13 08:04:30;;;;;;;52.60;26.70;;;;;;;0.51;96.74;99952.64;106295;1316;22390;-60
2021/12/13 08:07:23;;;;;;;41.60;23.60;;;;;;;0.52;96.36;99955.95;106222;1316;138243;-60
2021/12/13 08:09:52;;;;;;;39.50;24.30;;;;;;;0.52;96.48;99967.01;106308;1316;23182;-60
2021/12/13 08:12:22;;;;;;;34.70;22.10;;;;;;;0.50;96.33;99967.80;106187;1316;139105;-60
2021/12/13 08:14:53;;;;;;;44.90;25.00;;;;;;;0.50;96.32;99970.64;106307;1316;22597;-59
2021/12/13 08:17:24;;;;;;;36.50;20.60;;;;;;;0.51;96.16;99968.63;106276;1316;22439;-60
2021/12/13 08:19:59;;;;;;;41.00;23.10;;;;;;;0.51;96.06;99973.58;106170;1316;140060;-60
2021/12/13 08:22:28;;;;;;;47.60;25.10;;;;;;;0.52;96.21;99973.27;106324;1316;22470;-60
2021/12/13 08:25:06;;;;;;;37.80;23.00;;;;;;;0.53;96.15;99971.52;106152;1313;138952;-60
2021/12/13 08:27:41;;;;;;;47.60;25.60;;;;;;;0.54;96.09;99970.88;106120;1316;22502;-60
2021/12/13 08:30:14;;;;;;;47.80;27.40;;;;;;;0.55;95.81;99972.78;106129;1316;138229;-60
2021/12/13 08:33:06;;;;;;;44.40;25.30;;;;;;;0.54;95.73;99974.43;106317;1316;22395;-59
2021/12/13 08:35:55;;;;;;;29.70;20.50;;;;;;;0.53;95.92;99979.44;106145;1316;24012;-60
2021/12/13 08:38:41;;;;;;;31.70;19.30;;;;;;;0.51;95.84;99970.93;106330;1316;22555;-60
2021/12/13 08:41:26;;;;;;;37.30;22.00;;;;;;;0.49;95.47;99967.52;106228;1316;22490;-60
2021/12/13 08:44:16;;;;;;;38.70;22.10;;;;;;;0.47;95.46;99968.72;106203;1316;138076;-59
2021/12/13 08:46:55;;;;;;;40.30;23.00;;;;;;;0.45;95.35;99976.77;106104;1316;22488;-60
2021/12/13 08:49:29;;;;;;;41.60;24.30;;;;;;;0.46;95.05;99963.67;106170;1316;138811;-60
2021/12/13 08:52:20;;;;;;;44.40;22.60;;;;;;;0.46;95.38;99956.67;106314;1316;22586;-60
2021/12/13 08:54:53;;;;;;;40.60;23.00;;;;;;;0.45;95.21;99950.30;106041;1316;139770;-60
2021/12/13 08:57:36;;;;;;;42.50;24.30;;;;;;;0.46;95.50;99949.89;106339;1316;22404;-60
2021/12/13 09:00:13;;;;;;;48.80;24.90;;;;;;;0.47;95.20;99947.23;106254;1316;138358;-60
2021/12/13 09:02:45;;;;;;;37.60;21.80;;;;;;;0.47;95.26;99941.88;106193;1316;22477;-60
2021/12/13 09:05:16;;;;;;;44.00;25.20;;;;;;;0.47;95.31;99935.61;106236;1316;22640;-60
2021/12/13 09:08:04;;;;;;;43.00;24.90;;;;;;;0.48;95.25;99931.17;106078;1320;138947;-60
2021/12/13 09:10:43;;;;;;;49.30;25.40;;;;;;;0.47;95.37;99921.47;106198;1316;22481;-60
2021/12/13 09:13:12;;;;;;;40.60;23.10;;;;;;;0.46;95.07;99914.02;106285;1316;139879;-59
2021/12/13 09:15:41;;;;;;;57.40;27.50;;;;;;;0.44;95.04;99908.13;106325;1316;22400;-60
2021/12/13 09:18:09;;;;;;;43.50;24.30;;;;;;;0.44;94.92;99920.13;106211;1315;138549;-60
2021/12/13 09:20:41;;;;;;;43.20;24.30;;;;;;;0.43;95.14;99931.32;106242;1316;23182;-60
2021/12/13 09:23:19;;;;;;;46.50;26.70;;;;;;;0.42;95.02;99935.21;106348;1316;22428;-59
2021/12/13 09:25:52;;;;;;;52.10;28.10;;;;;;;0.42;94.98;99940.95;106182;1315;138505;-59
2021/12/13 09:28:23;;;;;;;52.90;28.20;;;;;;;0.41;95.20;99937.97;106320;1315;22492;-59
2021/12/13 09:31:00;;;;;;;58.30;28.10;;;;;;;0.41;94.98;99935.86;106185;1316;137994;-59
2021/12/13 09:33:30;;;;;;;50.20;26.90;;;;;;;0.41;95.02;99941.15;106283;1315;22490;-59
2021/12/13 09:36:08;;;;;;;46.20;25.40;;;;;;;0.43;95.11;99939.19;106243;1315;22561;-59
2021/12/13 09:38:52;;;;;;;44.00;24.80;;;;;;;0.46;95.33;99940.61;106213;1316;138355;-59
2021/12/13 09:41:35;;;;;;;52.40;28.30;;;;;;;0.50;95.38;99936.56;106304;1316;22606;-59
2021/12/13 09:44:08;;;;;;;47.80;27.10;;;;;;;0.54;95.29;99928.42;106199;1316;138014;-60
2021/12/13 09:46:39;;;;;;;50.90;27.40;;;;;;;0.56;95.54;99917.17;106237;1315;22546;-60
2021/12/13 09:49:14;;;;;;;49.70;29.20;;;;;;;0.55;95.25;99901.59;106163;1316;138182;-59
2021/12/13 09:52:23;;;;;;;50.70;29.80;;;;;;;0.55;94.94;99905.55;106337;1316;23433;-59
2021/12/13 09:55:00;;;;;;;52.80;27.10;;;;;;;0.54;95.13;99912.43;106259;1316;138169;-60
2021/12/13 09:57:37;;;;;;;44.60;25.30;;;;;;;0.54;95.10;99917.86;106221;1316;23139;-60
2021/12/13 10:00:10;;;;;;;49.20;27.00;;;;;;;0.53;95.13;99933.78;106296;1313;22483;-59
2021/12/13 10:02:40;;;;;;;52.40;27.00;;;;;;;0.53;95.10;99944.62;106227;1316;138969;-60
2021/12/13 10:05:11;;;;;;;49.30;28.10;;;;;;;0.52;95.06;99950.75;106318;1316;23235;-60
2021/12/13 10:07:41;;;;;;;52.60;29.20;;;;;;;0.53;95.08;99938.02;105790;1315;139123;-60
2021/12/13 10:10:19;;;;;;;56.50;30.00;;;;;;;0.53;95.15;99930.84;106352;1316;22767;-59
2021/12/13 10:12:51;;;;;;;59.90;31.10;;;;;;;0.51;95.03;99933.00;106251;1316;138139;-59
2021/12/13 10:15:24;;;;;;;53.50;29.40;;;;;;;0.51;94.96;99936.29;106387;1315;24576;-59
2021/12/13 10:17:55;;;;;;;52.30;28.60;;;;;;;0.48;94.74;99932.95;106333;1315;22463;-59
2021/12/13 10:20:26;;;;;;;59.50;27.80;;;;;;;0.46;94.82;99925.33;106028;1316;138257;-59
2021/12/13 10:22:55;;;;;;;55.30;28.50;;;;;;;0.45;94.98;99926.63;106358;1316;22542;-59
2021/12/13 10:25:32;;;;;;;52.20;26.50;;;;;;;0.44;95.03;99932.10;106264;1315;139008;-59
2021/12/13 10:28:09;;;;;;;50.60;27.90;;;;;;;0.43;94.84;99935.02;106378;1315;22560;-59
2021/12/13 10:30:47;;;;;;;45.10;25.00;;;;;;;0.42;94.92;99935.14;106238;1315;139508;-59
2021/12/13 10:33:16;;;;;;;52.20;27.60;;;;;;;0.42;94.83;99934.81;106301;1316;22469;-59
2021/12/13 10:35:43;;;;;;;51.50;27.10;;;;;;;0.41;95.08;99938.51;106237;1315;22398;-59
2021/12/13 10:38:24;;;;;;;48.80;26.30;;;;;;;0.41;95.13;99935.98;106304;1316;140208;-60
2021/12/13 10:41:01;;;;;;;42.90;23.90;;;;;;;0.41;95.20;99935.13;106324;1316;22476;-59
2021/12/13 10:43:36;;;;;;;47.70;26.80;;;;;;;0.41;95.21;99937.77;106245;1317;138377;-59
2021/12/13 10:46:10;;;;;;;53.20;28.50;;;;;;;0.42;94.89;99938.96;106365;1316;22505;-59
2021/12/13 10:48:47;;;;;;;54.20;29.20;;;;;;;0.41;94.85;99934.96;106229;1316;139854;-60
2021/12/13 10:51:29;;;;;;;47.00;26.20;;;;;;;0.41;94.89;99925.88;106331;1316;23396;-59
2021/12/13 10:53:58;;;;;;;48.90;25.10;;;;;;;0.41;94.99;99921.52;106322;1315;22419;-59
2021/12/13 10:56:32;;;;;;;52.60;26.90;;;;;;;0.42;95.14;99920.41;106184;1319;137975;-59
2021/12/13 10:59:03;;;;;;;56.40;30.80;;;;;;;0.44;94.87;99925.75;106328;1316;22479;-59
2021/12/13 11:01:35;;;;;;;59.90;30.60;;;;;;;0.46;95.06;99922.77;106296;1316;139158;-59
2021/12/13 11:04:06;;;;;;;63.70;29.80;;;;;;;0.45;95.22;99916.73;106348;1315;22468;-59
2021/12/13 11:06:35;;;;;;;56.10;28.50;;;;;;;0.44;94.92;99912.19;106254;1315;138229;-59
2021/12/13 11:09:10;;;;;;;53.70;28.90;;;;;;;0.44;95.30;99915.27;106434;1316;23221;-59
2021/12/13 11:11:41;;;;;;;65.90;32.90;;;;;;;0.44;95.16;99915.48;106358;1316;23385;-59
2021/12/13 11:14:11;;;;;;;57.80;31.20;;;;;;;0.41;95.07;99909.59;106218;1316;137963;-59
2021/12/13 11:16:42;;;;;;;54.90;29.60;;;;;;;0.40;95.08;99906.45;106377;1316;22413;-59
2021/12/13 11:19:12;;;;;;;63.50;30.60;;;;;;;0.40;95.10;99901.33;106258;1316;139470;-59
2021/12/13 11:21:42;;;;;;;70.40;32.50;;;;;;;0.39;95.02;99895.67;106299;1316;22562;-59
2021/12/13 11:24:19;;;;;;;61.90;32.90;;;;;;;0.38;94.99;99895.45;106412;1316;22509;-59
2021/12/13 11:26:50;;;;;;;66.10;35.00;;;;;;;0.37;95.10;99886.31;106246;1316;138822;-59
2021/12/13 11:29:18;;;;;;;73.00;35.10;;;;;;;0.35;95.38;99883.80;106275;1316;23591;-59
2021/12/13 11:31:52;;;;;;;66.00;35.70;;;;;;;0.35;95.07;99882.00;106275;1315;138124;-59
2021/12/13 11:35:04;;;;;;;84.20;42.70;;;;;;;0.35;95.27;99883.24;106251;1316;22399;-59
2021/12/13 11:37:56;;;;;;;68.50;36.80;;;;;;;0.37;95.34;99878.20;106107;1315;139412;-59
2021/12/13 11:41:01;;;;;;;64.10;36.00;;;;;;;0.39;95.28;99883.91;106365;1316;22482;-59
2021/12/13 11:43:33;;;;;;;60.50;32.80;;;;;;;0.41;95.28;99888.52;106271;1315;138487;-59
2021/12/13 11:46:27;;;;;;;61.70;30.80;;;;;;;0.43;95.59;99888.55;106362;1315;23190;-59
2021/12/13 11:49:17;;;;;;;63.80;32.10;;;;;;;0.46;95.67;99895.25;106261;1316;139335;-59
2021/12/13 11:52:14;;;;;;;56.40;30.90;;;;;;;0.46;95.31;99901.77;106296;1315;23166;-58
2021/12/13 11:55:23;;;;;;;54.60;28.60;;;;;;;0.48;95.74;99905.52;106276;1316;140119;-58